This is the latest recevied weather packets stored in our database for station/object OE-11272. If no packets are shown the sender has not sent any weather packets the latest 10 day(s).
| Time | Temp. | Humidity | Pressure | Rain* | Wind** | Luminosity | Snow |
|---|---|---|---|---|---|---|---|
| 1787813726 | 18.89° C | 87% | 1018.3 hPa | 0 mm | - | 319 W/m² | - |
| 1787812899 | 18.89° C | 89% | 1018.3 hPa | 0 mm | - | 300 W/m² | - |
| 1787812526 | 18.33° C | 89% | 1018.4 hPa | 0 mm | - | 262 W/m² | - |
| 1787811926 | 17.78° C | 93% | 1018.4 hPa | 0 mm | - | 250 W/m² | - |
| 1787811338 | 17.22° C | 95% | 1018.6 hPa | 0 mm | - | 225 W/m² | - |
| 1787810726 | 16.67° C | 96% | 1018.7 hPa | 0 mm | - | 194 W/m² | - |
| 1787810126 | 15.56° C | 100% | 1018.9 hPa | 0 mm | - | 156 W/m² | - |
| 1787809299 | 15° C | 100% | 1019.2 hPa | 0 mm | - | 50 W/m² | - |
| 1787808926 | 15° C | 100% | 1019.2 hPa | 0 mm | - | 25 W/m² | - |
| 1787808326 | 15° C | 100% | 1019.3 hPa | 0 mm | - | 25 W/m² | - |
| 1787807499 | 15° C | 100% | 1019.3 hPa | 0 mm | - | 25 W/m² | - |
| 1787807126 | 15° C | 100% | 1019.3 hPa | 0 mm | - | 19 W/m² | - |
| 1787806526 | 14.44° C | 100% | 1019.4 hPa | 0 mm | - | 12 W/m² | - |
| 1787805698 | 14.44° C | 100% | 1019.3 hPa | 0 mm | - | 6 W/m² | - |
| 1787805326 | 14.44° C | 100% | 1019.3 hPa | 0 mm | - | 0 W/m² | - |
| 1787804726 | 14.44° C | 100% | 1019 hPa | 0 mm | - | 0 W/m² | - |
| 1787803899 | 14.44° C | 100% | 1018.9 hPa | 0 mm | - | 0 W/m² | - |
| 1787803526 | 15° C | 100% | 1018.8 hPa | 0 mm | - | 0 W/m² | - |
| 1787802926 | 15° C | 100% | 1018.8 hPa | 0 mm | - | 0 W/m² | - |
| 1787802326 | 15° C | 100% | 1018.8 hPa | 0 mm | - | 0 W/m² | - |
| 1787801726 | 15° C | 100% | 1018.8 hPa | 0 mm | - | 0 W/m² | - |
| 1787801126 | 15° C | 100% | 1018.7 hPa | 0 mm | - | 0 W/m² | - |
| 1787800299 | 15° C | 100% | 1018.8 hPa | 0 mm | - | 0 W/m² | - |
| 1787799926 | 15.56° C | 100% | 1018.7 hPa | 0 mm | - | 0 W/m² | - |
| 1787799326 | 15.56° C | 100% | 1019 hPa | 0 mm | - | 0 W/m² | - |
* Rain latest hour (hover to see other rain measurements)
** Current wind speed in m/s (hover to see current wind gust speed)